createdAt,value
2023-03-15T00:04:09.578Z,98033.69
2023-03-15T00:09:12.450Z,98028.44
2023-03-15T00:14:15.248Z,98023.63
2023-03-15T00:19:19.612Z,98038.44
2023-03-15T00:24:24.963Z,98045.97
2023-03-15T00:29:27.833Z,98056.38
2023-03-15T00:34:33.774Z,98053.75
2023-03-15T00:39:38.046Z,98048.44
2023-03-15T00:44:44.691Z,98050.47
2023-03-15T00:49:50.668Z,98060.38
2023-03-15T00:54:54.227Z,98070.25
2023-03-15T00:59:58.256Z,98068.47
2023-03-15T01:11:24.179Z,98072.19
2023-03-15T01:16:30.753Z,98081.00
2023-03-15T01:22:00.578Z,98087.22
2023-03-15T01:27:04.813Z,98082.84
2023-03-15T01:32:08.455Z,98095.09
2023-03-15T01:37:14.388Z,98089.03
2023-03-15T01:42:20.500Z,98082.84
2023-03-15T01:47:25.995Z,98083.84
2023-03-15T01:52:34.182Z,98080.47
2023-03-15T01:57:44.325Z,98084.78
2023-03-15T02:02:51.177Z,98081.38
2023-03-15T02:07:59.382Z,98071.75
2023-03-15T02:13:09.131Z,98088.44
2023-03-15T02:18:12.570Z,98090.03
2023-03-15T02:23:18.287Z,98091.81
2023-03-15T02:28:23.523Z,98093.56
2023-03-15T02:33:29.172Z,98100.59
2023-03-15T02:38:31.973Z,98099.34
2023-03-15T02:43:37.117Z,98107.81
2023-03-15T02:48:42.360Z,98108.53
2023-03-15T02:53:45.292Z,98109.88
2023-03-15T02:58:49.402Z,98105.22
2023-03-15T03:03:52.418Z,98098.88
2023-03-15T03:08:55.938Z,98100.50
2023-03-15T03:14:00.809Z,98110.06
2023-03-15T03:19:04.208Z,98127.50
2023-03-15T03:24:08.626Z,98123.84
2023-03-15T03:29:16.738Z,98118.53
2023-03-15T03:34:22.394Z,98136.66
2023-03-15T03:39:26.847Z,98148.69
2023-03-15T03:44:31.294Z,98142.34
2023-03-15T03:49:34.276Z,98142.94
2023-03-15T03:54:37.400Z,98154.97
2023-03-15T03:59:42.128Z,98149.72
2023-03-15T04:04:50.139Z,98155.75
2023-03-15T04:09:55.130Z,98164.03
2023-03-15T04:14:59.454Z,98167.69
2023-03-15T04:20:10.681Z,98169.41
2023-03-15T04:25:16.087Z,98175.47
2023-03-15T04:30:27.142Z,98169.41
2023-03-15T04:35:49.811Z,98178.44
2023-03-15T04:41:10.851Z,98167.41
2023-03-15T04:46:25.181Z,98163.19
2023-03-15T04:51:50.065Z,98158.28
2023-03-15T04:57:11.802Z,98161.81
2023-03-15T05:02:42.463Z,98168.25
2023-03-15T05:08:12.298Z,98172.50
2023-03-15T05:13:33.935Z,98175.25
2023-03-15T05:19:01.304Z,98183.22
2023-03-15T05:24:24.673Z,98192.69
2023-03-15T05:29:35.782Z,98195.19
2023-03-15T05:35:06.344Z,98197.72
2023-03-15T05:40:42.424Z,98199.19
2023-03-15T05:46:10.504Z,98206.28
2023-03-15T05:51:30.767Z,98220.41
2023-03-15T05:56:52.963Z,98222.25
2023-03-15T06:02:16.239Z,98233.63
2023-03-15T06:07:37.735Z,98236.38
2023-03-15T06:12:41.864Z,98237.94
2023-03-15T06:17:45.264Z,98251.75
2023-03-15T06:22:50.168Z,98267.88
2023-03-15T06:28:04.946Z,98260.09
2023-03-15T06:33:08.230Z,98267.66
2023-03-15T06:38:13.733Z,98274.38
2023-03-15T06:43:19.571Z,98265.19
2023-03-15T06:48:23.455Z,98276.44
2023-03-15T06:53:31.214Z,98273.41
2023-03-15T06:58:34.151Z,98279.63
2023-03-15T07:03:38.999Z,98291.44
2023-03-15T07:08:43.186Z,98307.63
2023-03-15T07:13:46.797Z,98320.25
2023-03-15T07:18:50.367Z,98311.97
2023-03-15T07:23:56.073Z,98327.56
2023-03-15T07:28:59.267Z,98341.31
2023-03-15T07:34:02.059Z,98349.97
2023-03-15T07:39:06.317Z,98354.81
2023-03-15T07:44:11.110Z,98356.78
2023-03-15T07:49:13.961Z,98366.88
2023-03-15T07:54:19.351Z,98377.81
2023-03-15T07:59:22.279Z,98387.13
2023-03-15T08:04:26.680Z,98401.03
2023-03-15T08:09:34.922Z,98408.31
2023-03-15T08:14:37.702Z,98420.03
2023-03-15T08:19:40.961Z,98431.09
2023-03-15T08:24:46.240Z,98435.78
2023-03-15T08:29:51.885Z,98444.88
2023-03-15T08:34:56.283Z,98457.28
2023-03-15T08:40:08.296Z,98459.09
2023-03-15T08:45:12.259Z,98467.75
2023-03-15T08:50:19.384Z,98474.56
2023-03-15T08:55:23.730Z,98488.31
2023-03-15T09:00:27.693Z,98488.50
2023-03-15T09:05:30.906Z,98495.63
2023-03-15T09:10:35.393Z,98494.38
2023-03-15T09:15:40.356Z,98487.81
2023-03-15T09:20:45.521Z,98509.81
2023-03-15T09:25:49.845Z,98511.63
2023-03-15T09:30:53.107Z,98521.47
2023-03-15T09:35:55.979Z,98510.22
2023-03-15T09:41:03.830Z,98523.16
2023-03-15T09:46:20.443Z,98531.34
2023-03-15T09:51:35.568Z,98529.84
2023-03-15T09:56:47.255Z,98541.69
2023-03-15T10:01:53.806Z,98549.16
2023-03-15T10:07:02.431Z,98554.63
2023-03-15T10:12:13.188Z,98555.00
2023-03-15T10:17:22.390Z,98560.09
2023-03-15T10:22:30.588Z,98561.50
2023-03-15T10:27:39.906Z,98565.19
2023-03-15T10:32:45.411Z,98560.13
2023-03-15T10:37:50.319Z,98561.00
2023-03-15T10:42:58.822Z,98566.53
2023-03-15T10:48:02.331Z,98574.81
2023-03-15T10:53:11.487Z,98572.63
2023-03-15T10:58:26.357Z,98580.66
2023-03-15T11:03:31.818Z,98583.31
2023-03-15T11:08:40.404Z,98584.38
2023-03-15T11:14:00.558Z,98578.47
2023-03-15T11:19:06.592Z,98593.41
2023-03-15T11:24:23.815Z,98587.91
2023-03-15T11:29:29.895Z,98583.44
2023-03-15T11:34:39.582Z,98589.97
2023-03-15T11:39:50.323Z,98595.47
2023-03-15T11:45:01.394Z,98603.41
2023-03-15T11:50:04.460Z,98602.59
2023-03-15T11:55:07.974Z,98612.13
2023-03-15T12:00:49.751Z,98609.50
2023-03-15T12:06:02.401Z,98610.13
2023-03-15T12:11:13.599Z,98620.84
2023-03-15T12:16:22.952Z,98629.44
2023-03-15T12:21:33.602Z,98635.19
2023-03-15T12:26:42.914Z,98635.22
2023-03-15T12:31:56.484Z,98631.66
2023-03-15T12:37:05.567Z,98643.44
2023-03-15T12:42:14.018Z,98633.22
2023-03-15T12:47:17.470Z,98632.69
2023-03-15T12:52:42.426Z,98629.69
2023-03-15T12:57:52.412Z,98638.34
2023-03-15T13:03:07.008Z,98640.31
2023-03-15T13:08:22.141Z,98632.63
2023-03-15T13:13:37.033Z,98635.50
2023-03-15T13:18:49.519Z,98639.97
2023-03-15T13:23:59.504Z,98635.06
2023-03-15T13:29:06.325Z,98636.47
2023-03-15T13:34:16.132Z,98639.38
2023-03-15T13:39:24.324Z,98632.03
2023-03-15T13:44:28.360Z,98637.91
2023-03-15T13:49:33.063Z,98635.97
2023-03-15T13:54:37.482Z,98631.25
2023-03-15T13:59:48.615Z,98634.41
2023-03-15T14:04:57.060Z,98628.69
2023-03-15T14:10:28.716Z,98627.31
2023-03-15T14:15:39.235Z,98631.41
2023-03-15T14:20:44.196Z,98633.56
2023-03-15T14:25:53.972Z,98634.16
2023-03-15T14:30:58.932Z,98637.41
2023-03-15T14:36:03.860Z,98639.28
2023-03-15T14:41:21.049Z,98645.06
2023-03-15T14:46:24.437Z,98638.53
2023-03-15T14:51:31.686Z,98649.06
2023-03-15T14:56:39.666Z,98652.19
2023-03-15T15:01:47.625Z,98650.03
2023-03-15T15:06:54.408Z,98654.19
2023-03-15T15:11:58.694Z,98662.22
2023-03-15T15:17:01.581Z,98669.50
2023-03-15T15:22:04.619Z,98668.84
2023-03-15T15:27:10.673Z,98674.34
2023-03-15T15:32:13.425Z,98675.03
2023-03-15T15:37:17.357Z,98688.19
2023-03-15T15:42:21.489Z,98677.66
2023-03-15T15:47:24.572Z,98681.44
2023-03-15T15:52:30.117Z,98672.72
2023-03-15T15:57:34.620Z,98688.53
2023-03-15T16:02:41.403Z,98680.66
2023-03-15T16:07:46.386Z,98689.28
2023-03-15T16:12:54.468Z,98678.56
2023-03-15T16:18:02.189Z,98667.63
2023-03-15T16:23:06.677Z,98677.09
2023-03-15T16:28:11.557Z,98678.94
2023-03-15T16:33:16.137Z,98684.75
2023-03-15T16:38:24.477Z,98682.75
2023-03-15T16:43:29.257Z,98689.31
2023-03-15T16:48:32.064Z,98690.81
2023-03-15T16:53:37.284Z,98689.38
2023-03-15T16:58:42.693Z,98694.88
2023-03-15T17:03:47.700Z,98694.06
2023-03-15T17:08:51.178Z,98711.47
2023-03-15T17:13:55.649Z,98715.34
2023-03-15T17:18:58.505Z,98708.47
2023-03-15T17:24:01.390Z,98717.16
2023-03-15T17:29:06.935Z,98727.63
2023-03-15T17:34:10.498Z,98730.19
2023-03-15T17:39:17.001Z,98732.72
2023-03-15T17:44:21.318Z,98734.16
2023-03-15T17:49:26.385Z,98736.38
2023-03-15T17:54:29.201Z,98740.72
2023-03-15T17:59:33.394Z,98750.22
2023-03-15T18:04:36.717Z,98755.94
2023-03-15T18:09:39.804Z,98761.06
2023-03-15T18:14:44.778Z,98765.84
2023-03-15T18:19:47.674Z,98759.06
2023-03-15T18:24:50.591Z,98761.66
2023-03-15T18:29:54.855Z,98760.63
2023-03-15T18:34:57.694Z,98764.03
2023-03-15T18:40:00.752Z,98772.28
2023-03-15T18:45:05.601Z,98763.78
2023-03-15T18:50:12.761Z,98765.16
2023-03-15T18:55:18.247Z,98772.53
2023-03-15T19:00:26.178Z,98786.88
2023-03-15T19:05:31.139Z,98779.78
2023-03-15T19:10:34.030Z,98789.22
2023-03-15T19:15:40.769Z,98799.09
2023-03-15T19:20:43.600Z,98806.41
2023-03-15T19:25:47.175Z,98797.88
2023-03-15T19:30:51.855Z,98801.69
2023-03-15T19:35:54.796Z,98806.63
2023-03-15T19:40:58.801Z,98805.94
2023-03-15T19:46:07.933Z,98806.25
2023-03-15T19:51:11.379Z,98808.25
2023-03-15T19:56:14.446Z,98813.03
2023-03-15T20:01:20.665Z,98823.06
2023-03-15T20:06:26.006Z,98808.53
2023-03-15T20:11:29.439Z,98816.38
2023-03-15T20:16:33.944Z,98819.25
2023-03-15T20:21:37.464Z,98822.28
2023-03-15T20:26:40.859Z,98825.81
2023-03-15T20:31:46.894Z,98835.44
2023-03-15T20:36:52.671Z,98834.78
2023-03-15T20:41:55.798Z,98833.13
2023-03-15T20:47:01.491Z,98840.31
2023-03-15T20:52:05.157Z,98847.28
2023-03-15T20:57:09.889Z,98856.84
2023-03-15T21:02:14.849Z,98846.50
2023-03-15T21:07:17.740Z,98848.69
2023-03-15T21:12:20.743Z,98840.88
2023-03-15T21:17:25.271Z,98833.75
2023-03-15T21:22:28.117Z,98840.63
2023-03-15T21:27:33.059Z,98854.72
2023-03-15T21:32:38.937Z,98863.66
2023-03-15T21:37:41.818Z,98849.16
2023-03-15T21:42:47.780Z,98850.31
2023-03-15T21:47:52.630Z,98851.72
2023-03-15T21:52:55.494Z,98845.22
2023-03-15T21:57:58.285Z,98837.44
2023-03-15T22:03:02.447Z,98835.97
2023-03-15T22:08:05.164Z,98838.84
2023-03-15T22:13:08.033Z,98837.41
2023-03-15T22:18:12.310Z,98841.78
2023-03-15T22:23:15.203Z,98839.25
2023-03-15T22:28:18.120Z,98835.97
2023-03-15T22:33:22.883Z,98825.59
2023-03-15T22:38:26.838Z,98823.13
2023-03-15T22:43:29.630Z,98825.09
2023-03-15T22:48:34.604Z,98830.34
2023-03-15T22:53:37.930Z,98821.81
2023-03-15T22:58:40.785Z,98823.66
2023-03-15T23:03:44.873Z,98822.03
2023-03-15T23:08:48.006Z,98837.84
2023-03-15T23:13:50.914Z,98835.16
2023-03-15T23:18:55.176Z,98831.75
2023-03-15T23:23:58.250Z,98823.97
2023-03-15T23:29:01.060Z,98831.81
2023-03-15T23:34:05.977Z,98832.63
2023-03-15T23:39:09.268Z,98832.84
2023-03-15T23:44:12.258Z,98830.38
2023-03-15T23:49:16.440Z,98833.84
2023-03-15T23:54:19.348Z,98826.91
2023-03-15T23:59:22.530Z,98837.44
